sensor_id;sensor_type;location;lat;lon;timestamp;P1;durP1;ratioP1;P2;durP2;ratioP2
15240;SDS011;7723;52.170;9.978;2023-07-30T00:01:50;1.80;;;1.52;;
15240;SDS011;7723;52.170;9.978;2023-07-30T00:04:17;2.50;;;1.30;;
15240;SDS011;7723;52.170;9.978;2023-07-30T00:06:44;1.48;;;1.23;;
15240;SDS011;7723;52.170;9.978;2023-07-30T00:09:11;1.55;;;1.40;;
15240;SDS011;7723;52.170;9.978;2023-07-30T00:11:40;2.25;;;1.52;;
15240;SDS011;7723;52.170;9.978;2023-07-30T00:14:07;1.35;;;1.25;;
15240;SDS011;7723;52.170;9.978;2023-07-30T00:16:34;1.73;;;1.63;;
15240;SDS011;7723;52.170;9.978;2023-07-30T00:19:01;2.58;;;1.50;;
15240;SDS011;7723;52.170;9.978;2023-07-30T00:21:28;1.40;;;1.30;;
15240;SDS011;7723;52.170;9.978;2023-07-30T00:23:55;1.80;;;1.65;;
15240;SDS011;7723;52.170;9.978;2023-07-30T00:26:23;1.75;;;1.58;;
15240;SDS011;7723;52.170;9.978;2023-07-30T00:28:52;1.55;;;1.40;;
15240;SDS011;7723;52.170;9.978;2023-07-30T00:31:19;2.25;;;1.55;;
15240;SDS011;7723;52.170;9.978;2023-07-30T00:33:47;1.42;;;1.33;;
15240;SDS011;7723;52.170;9.978;2023-07-30T00:36:14;1.77;;;1.52;;
15240;SDS011;7723;52.170;9.978;2023-07-30T00:38:41;1.95;;;1.70;;
15240;SDS011;7723;52.170;9.978;2023-07-30T00:41:08;1.40;;;1.30;;
15240;SDS011;7723;52.170;9.978;2023-07-30T00:43:35;2.65;;;1.60;;
15240;SDS011;7723;52.170;9.978;2023-07-30T00:46:03;3.30;;;1.73;;
15240;SDS011;7723;52.170;9.978;2023-07-30T00:48:30;2.67;;;1.60;;
15240;SDS011;7723;52.170;9.978;2023-07-30T00:50:58;1.60;;;1.50;;
15240;SDS011;7723;52.170;9.978;2023-07-30T00:53:26;2.15;;;1.48;;
15240;SDS011;7723;52.170;9.978;2023-07-30T00:55:54;3.45;;;1.60;;
15240;SDS011;7723;52.170;9.978;2023-07-30T00:58:22;1.70;;;1.40;;
15240;SDS011;7723;52.170;9.978;2023-07-30T01:00:50;2.72;;;1.77;;
15240;SDS011;7723;52.170;9.978;2023-07-30T01:03:20;1.83;;;1.30;;
15240;SDS011;7723;52.170;9.978;2023-07-30T01:05:48;2.08;;;1.55;;
15240;SDS011;7723;52.170;9.978;2023-07-30T01:08:15;2.60;;;1.50;;
15240;SDS011;7723;52.170;9.978;2023-07-30T01:10:42;2.97;;;1.70;;
15240;SDS011;7723;52.170;9.978;2023-07-30T01:13:10;2.55;;;1.80;;
15240;SDS011;7723;52.170;9.978;2023-07-30T01:15:37;1.50;;;1.40;;
15240;SDS011;7723;52.170;9.978;2023-07-30T01:18:06;1.80;;;1.60;;
15240;SDS011;7723;52.170;9.978;2023-07-30T01:20:34;1.73;;;1.63;;
15240;SDS011;7723;52.170;9.978;2023-07-30T01:23:03;1.88;;;1.58;;
15240;SDS011;7723;52.170;9.978;2023-07-30T01:25:30;2.47;;;1.52;;
15240;SDS011;7723;52.170;9.978;2023-07-30T01:28:02;1.80;;;1.50;;
15240;SDS011;7723;52.170;9.978;2023-07-30T01:30:32;2.20;;;1.80;;
15240;SDS011;7723;52.170;9.978;2023-07-30T01:33:03;1.83;;;1.50;;
15240;SDS011;7723;52.170;9.978;2023-07-30T01:35:32;2.92;;;1.80;;
15240;SDS011;7723;52.170;9.978;2023-07-30T01:38:01;1.70;;;1.58;;
15240;SDS011;7723;52.170;9.978;2023-07-30T01:40:30;2.08;;;1.40;;
15240;SDS011;7723;52.170;9.978;2023-07-30T01:42:58;2.90;;;1.63;;
15240;SDS011;7723;52.170;9.978;2023-07-30T01:45:25;1.52;;;1.30;;
15240;SDS011;7723;52.170;9.978;2023-07-30T01:47:52;1.45;;;1.35;;
15240;SDS011;7723;52.170;9.978;2023-07-30T01:50:19;2.92;;;1.67;;
15240;SDS011;7723;52.170;9.978;2023-07-30T01:52:46;2.10;;;1.70;;
15240;SDS011;7723;52.170;9.978;2023-07-30T01:55:15;1.67;;;1.52;;
15240;SDS011;7723;52.170;9.978;2023-07-30T01:57:43;3.60;;;1.88;;
15240;SDS011;7723;52.170;9.978;2023-07-30T02:00:10;3.20;;;1.90;;
15240;SDS011;7723;52.170;9.978;2023-07-30T02:02:38;2.13;;;1.50;;
15240;SDS011;7723;52.170;9.978;2023-07-30T02:05:05;3.30;;;1.70;;
15240;SDS011;7723;52.170;9.978;2023-07-30T02:07:33;3.25;;;2.03;;
15240;SDS011;7723;52.170;9.978;2023-07-30T02:10:00;1.70;;;1.60;;
15240;SDS011;7723;52.170;9.978;2023-07-30T02:12:28;1.95;;;1.70;;
15240;SDS011;7723;52.170;9.978;2023-07-30T02:14:55;4.25;;;1.75;;
15240;SDS011;7723;52.170;9.978;2023-07-30T02:17:22;2.08;;;1.70;;
15240;SDS011;7723;52.170;9.978;2023-07-30T02:19:49;3.92;;;2.20;;
15240;SDS011;7723;52.170;9.978;2023-07-30T02:22:16;3.67;;;1.55;;
15240;SDS011;7723;52.170;9.978;2023-07-30T02:24:43;2.05;;;1.80;;
15240;SDS011;7723;52.170;9.978;2023-07-30T02:27:10;2.55;;;1.92;;
15240;SDS011;7723;52.170;9.978;2023-07-30T02:29:39;2.42;;;1.98;;
15240;SDS011;7723;52.170;9.978;2023-07-30T02:32:06;2.72;;;2.20;;
15240;SDS011;7723;52.170;9.978;2023-07-30T02:34:34;3.38;;;1.92;;
15240;SDS011;7723;52.170;9.978;2023-07-30T02:37:01;4.70;;;2.17;;
15240;SDS011;7723;52.170;9.978;2023-07-30T02:39:28;3.22;;;2.00;;
15240;SDS011;7723;52.170;9.978;2023-07-30T02:41:55;4.88;;;1.98;;
15240;SDS011;7723;52.170;9.978;2023-07-30T02:44:22;2.80;;;2.10;;
15240;SDS011;7723;52.170;9.978;2023-07-30T02:46:50;4.38;;;2.15;;
15240;SDS011;7723;52.170;9.978;2023-07-30T02:49:18;2.63;;;1.90;;
15240;SDS011;7723;52.170;9.978;2023-07-30T02:51:45;5.35;;;1.92;;
15240;SDS011;7723;52.170;9.978;2023-07-30T02:54:14;5.07;;;2.15;;
15240;SDS011;7723;52.170;9.978;2023-07-30T02:56:42;4.13;;;1.98;;
15240;SDS011;7723;52.170;9.978;2023-07-30T02:59:10;3.30;;;2.00;;
15240;SDS011;7723;52.170;9.978;2023-07-30T03:01:37;3.72;;;1.73;;
15240;SDS011;7723;52.170;9.978;2023-07-30T03:04:06;4.05;;;2.20;;
15240;SDS011;7723;52.170;9.978;2023-07-30T03:06:33;4.00;;;1.70;;
15240;SDS011;7723;52.170;9.978;2023-07-30T03:09:00;2.45;;;1.70;;
15240;SDS011;7723;52.170;9.978;2023-07-30T03:11:27;3.90;;;1.98;;
15240;SDS011;7723;52.170;9.978;2023-07-30T03:13:54;4.03;;;2.28;;
15240;SDS011;7723;52.170;9.978;2023-07-30T03:16:22;2.40;;;2.17;;
15240;SDS011;7723;52.170;9.978;2023-07-30T03:18:49;2.72;;;2.05;;
15240;SDS011;7723;52.170;9.978;2023-07-30T03:21:17;2.83;;;2.30;;
15240;SDS011;7723;52.170;9.978;2023-07-30T03:23:44;4.55;;;2.20;;
15240;SDS011;7723;52.170;9.978;2023-07-30T03:26:13;3.20;;;2.10;;
15240;SDS011;7723;52.170;9.978;2023-07-30T03:28:40;2.72;;;2.13;;
15240;SDS011;7723;52.170;9.978;2023-07-30T03:31:08;3.20;;;2.03;;
15240;SDS011;7723;52.170;9.978;2023-07-30T03:33:35;5.10;;;2.40;;
15240;SDS011;7723;52.170;9.978;2023-07-30T03:36:04;6.05;;;2.42;;
15240;SDS011;7723;52.170;9.978;2023-07-30T03:38:33;3.30;;;2.22;;
15240;SDS011;7723;52.170;9.978;2023-07-30T03:41:00;3.35;;;2.40;;
15240;SDS011;7723;52.170;9.978;2023-07-30T03:43:27;3.50;;;2.42;;
15240;SDS011;7723;52.170;9.978;2023-07-30T03:45:54;6.93;;;2.33;;
15240;SDS011;7723;52.170;9.978;2023-07-30T03:48:21;3.10;;;2.17;;
15240;SDS011;7723;52.170;9.978;2023-07-30T03:50:48;3.75;;;1.95;;
15240;SDS011;7723;52.170;9.978;2023-07-30T03:53:15;2.42;;;1.83;;
15240;SDS011;7723;52.170;9.978;2023-07-30T03:55:44;4.93;;;1.92;;
15240;SDS011;7723;52.170;9.978;2023-07-30T03:58:11;4.43;;;2.58;;
15240;SDS011;7723;52.170;9.978;2023-07-30T04:00:38;4.13;;;2.35;;
15240;SDS011;7723;52.170;9.978;2023-07-30T04:03:05;3.63;;;1.92;;
15240;SDS011;7723;52.170;9.978;2023-07-30T04:05:33;2.83;;;2.08;;
15240;SDS011;7723;52.170;9.978;2023-07-30T04:08:00;7.80;;;2.55;;
15240;SDS011;7723;52.170;9.978;2023-07-30T04:10:27;4.53;;;2.53;;
15240;SDS011;7723;52.170;9.978;2023-07-30T04:12:56;3.80;;;2.42;;
15240;SDS011;7723;52.170;9.978;2023-07-30T04:15:23;4.55;;;2.10;;
15240;SDS011;7723;52.170;9.978;2023-07-30T04:17:50;3.33;;;1.95;;
15240;SDS011;7723;52.170;9.978;2023-07-30T04:20:17;7.95;;;2.55;;
15240;SDS011;7723;52.170;9.978;2023-07-30T04:22:44;4.20;;;2.33;;
15240;SDS011;7723;52.170;9.978;2023-07-30T04:25:11;3.78;;;2.00;;
15240;SDS011;7723;52.170;9.978;2023-07-30T04:27:38;4.85;;;2.15;;
15240;SDS011;7723;52.170;9.978;2023-07-30T04:30:07;3.28;;;2.10;;
15240;SDS011;7723;52.170;9.978;2023-07-30T04:32:35;5.03;;;1.92;;
15240;SDS011;7723;52.170;9.978;2023-07-30T04:35:02;3.22;;;1.92;;
15240;SDS011;7723;52.170;9.978;2023-07-30T04:37:30;3.20;;;2.30;;
15240;SDS011;7723;52.170;9.978;2023-07-30T04:39:57;2.97;;;2.03;;
15240;SDS011;7723;52.170;9.978;2023-07-30T04:42:24;7.63;;;2.15;;
15240;SDS011;7723;52.170;9.978;2023-07-30T04:44:51;2.70;;;1.90;;
15240;SDS011;7723;52.170;9.978;2023-07-30T04:47:20;4.90;;;2.00;;
15240;SDS011;7723;52.170;9.978;2023-07-30T04:49:47;4.53;;;2.60;;
15240;SDS011;7723;52.170;9.978;2023-07-30T04:52:14;5.57;;;2.53;;
15240;SDS011;7723;52.170;9.978;2023-07-30T04:54:41;6.40;;;2.60;;
15240;SDS011;7723;52.170;9.978;2023-07-30T04:57:09;6.03;;;2.80;;
15240;SDS011;7723;52.170;9.978;2023-07-30T04:59:36;5.85;;;3.33;;
15240;SDS011;7723;52.170;9.978;2023-07-30T05:02:03;3.65;;;2.92;;
15240;SDS011;7723;52.170;9.978;2023-07-30T05:04:31;3.92;;;3.25;;
15240;SDS011;7723;52.170;9.978;2023-07-30T05:06:59;7.65;;;3.80;;
15240;SDS011;7723;52.170;9.978;2023-07-30T05:09:26;6.82;;;3.70;;
15240;SDS011;7723;52.170;9.978;2023-07-30T05:11:53;7.97;;;3.65;;
15240;SDS011;7723;52.170;9.978;2023-07-30T05:14:20;7.03;;;4.05;;
15240;SDS011;7723;52.170;9.978;2023-07-30T05:16:47;5.47;;;4.03;;
15240;SDS011;7723;52.170;9.978;2023-07-30T05:19:15;6.28;;;3.97;;
15240;SDS011;7723;52.170;9.978;2023-07-30T05:21:44;7.80;;;4.13;;
15240;SDS011;7723;52.170;9.978;2023-07-30T05:24:11;10.00;;;4.15;;
15240;SDS011;7723;52.170;9.978;2023-07-30T05:26:38;5.57;;;4.70;;
15240;SDS011;7723;52.170;9.978;2023-07-30T05:29:05;5.97;;;4.65;;
15240;SDS011;7723;52.170;9.978;2023-07-30T05:31:33;6.72;;;3.97;;
15240;SDS011;7723;52.170;9.978;2023-07-30T05:34:01;6.60;;;4.43;;
15240;SDS011;7723;52.170;9.978;2023-07-30T05:36:28;5.03;;;4.40;;
15240;SDS011;7723;52.170;9.978;2023-07-30T05:38:56;7.65;;;4.35;;
15240;SDS011;7723;52.170;9.978;2023-07-30T05:41:24;5.90;;;4.22;;
15240;SDS011;7723;52.170;9.978;2023-07-30T05:43:51;4.50;;;3.55;;
15240;SDS011;7723;52.170;9.978;2023-07-30T05:46:18;4.50;;;3.30;;
15240;SDS011;7723;52.170;9.978;2023-07-30T05:48:45;4.57;;;3.47;;
15240;SDS011;7723;52.170;9.978;2023-07-30T05:51:12;5.68;;;3.95;;
15240;SDS011;7723;52.170;9.978;2023-07-30T05:53:39;4.82;;;3.30;;
15240;SDS011;7723;52.170;9.978;2023-07-30T05:56:08;5.75;;;3.28;;
15240;SDS011;7723;52.170;9.978;2023-07-30T05:58:35;8.75;;;3.67;;
15240;SDS011;7723;52.170;9.978;2023-07-30T06:01:02;9.60;;;3.15;;
15240;SDS011;7723;52.170;9.978;2023-07-30T06:03:29;5.93;;;3.10;;
15240;SDS011;7723;52.170;9.978;2023-07-30T06:05:56;7.10;;;4.68;;
15240;SDS011;7723;52.170;9.978;2023-07-30T06:08:23;4.70;;;3.35;;
15240;SDS011;7723;52.170;9.978;2023-07-30T06:10:51;5.05;;;3.10;;
15240;SDS011;7723;52.170;9.978;2023-07-30T06:13:19;3.58;;;2.72;;
15240;SDS011;7723;52.170;9.978;2023-07-30T06:15:46;3.70;;;2.80;;
15240;SDS011;7723;52.170;9.978;2023-07-30T06:18:13;5.13;;;2.45;;
15240;SDS011;7723;52.170;9.978;2023-07-30T06:20:40;5.60;;;2.42;;
15240;SDS011;7723;52.170;9.978;2023-07-30T06:23:07;3.05;;;1.80;;
15240;SDS011;7723;52.170;9.978;2023-07-30T06:25:35;3.20;;;1.95;;
15240;SDS011;7723;52.170;9.978;2023-07-30T06:28:02;9.48;;;2.17;;
15240;SDS011;7723;52.170;9.978;2023-07-30T06:30:30;4.95;;;1.88;;
15240;SDS011;7723;52.170;9.978;2023-07-30T06:32:58;3.25;;;2.08;;
15240;SDS011;7723;52.170;9.978;2023-07-30T06:35:25;2.40;;;1.60;;
15240;SDS011;7723;52.170;9.978;2023-07-30T06:37:52;3.30;;;1.70;;
15240;SDS011;7723;52.170;9.978;2023-07-30T06:40:19;2.85;;;1.70;;
15240;SDS011;7723;52.170;9.978;2023-07-30T06:42:46;2.85;;;1.45;;
15240;SDS011;7723;52.170;9.978;2023-07-30T06:45:14;3.15;;;1.83;;
15240;SDS011;7723;52.170;9.978;2023-07-30T06:47:42;2.85;;;1.50;;
15240;SDS011;7723;52.170;9.978;2023-07-30T06:50:09;2.70;;;1.58;;
15240;SDS011;7723;52.170;9.978;2023-07-30T06:52:37;2.00;;;1.33;;
15240;SDS011;7723;52.170;9.978;2023-07-30T06:55:04;3.85;;;1.35;;
15240;SDS011;7723;52.170;9.978;2023-07-30T06:57:31;3.05;;;1.60;;
15240;SDS011;7723;52.170;9.978;2023-07-30T06:59:58;2.60;;;1.35;;
15240;SDS011;7723;52.170;9.978;2023-07-30T07:02:25;4.13;;;1.63;;
15240;SDS011;7723;52.170;9.978;2023-07-30T07:04:54;3.75;;;1.65;;
15240;SDS011;7723;52.170;9.978;2023-07-30T07:07:21;4.03;;;1.83;;
15240;SDS011;7723;52.170;9.978;2023-07-30T07:09:48;4.57;;;1.80;;
15240;SDS011;7723;52.170;9.978;2023-07-30T07:12:15;1.95;;;1.73;;
15240;SDS011;7723;52.170;9.978;2023-07-30T07:14:42;3.15;;;1.80;;
15240;SDS011;7723;52.170;9.978;2023-07-30T07:17:09;2.20;;;1.67;;
15240;SDS011;7723;52.170;9.978;2023-07-30T07:19:36;1.60;;;1.50;;
15240;SDS011;7723;52.170;9.978;2023-07-30T07:22:05;3.72;;;2.03;;
15240;SDS011;7723;52.170;9.978;2023-07-30T07:24:32;2.70;;;2.00;;
15240;SDS011;7723;52.170;9.978;2023-07-30T07:26:59;2.75;;;1.80;;
15240;SDS011;7723;52.170;9.978;2023-07-30T07:29:26;2.83;;;2.13;;
15240;SDS011;7723;52.170;9.978;2023-07-30T07:31:54;2.50;;;1.83;;
15240;SDS011;7723;52.170;9.978;2023-07-30T07:34:21;2.65;;;1.58;;
15240;SDS011;7723;52.170;9.978;2023-07-30T07:36:48;3.45;;;1.88;;
15240;SDS011;7723;52.170;9.978;2023-07-30T07:39:16;3.50;;;1.73;;
15240;SDS011;7723;52.170;9.978;2023-07-30T07:41:44;3.53;;;2.05;;
15240;SDS011;7723;52.170;9.978;2023-07-30T07:44:11;2.75;;;1.80;;
15240;SDS011;7723;52.170;9.978;2023-07-30T07:46:38;3.00;;;1.83;;
15240;SDS011;7723;52.170;9.978;2023-07-30T07:49:05;2.67;;;1.80;;
15240;SDS011;7723;52.170;9.978;2023-07-30T07:51:33;3.05;;;1.63;;
15240;SDS011;7723;52.170;9.978;2023-07-30T07:54:00;2.67;;;1.67;;
15240;SDS011;7723;52.170;9.978;2023-07-30T07:56:30;5.57;;;1.85;;
15240;SDS011;7723;52.170;9.978;2023-07-30T07:58:57;2.08;;;1.80;;
15240;SDS011;7723;52.170;9.978;2023-07-30T08:01:24;1.70;;;1.40;;
15240;SDS011;7723;52.170;9.978;2023-07-30T08:03:51;2.90;;;1.60;;
15240;SDS011;7723;52.170;9.978;2023-07-30T08:06:19;2.55;;;1.45;;
15240;SDS011;7723;52.170;9.978;2023-07-30T08:08:46;3.70;;;1.30;;
15240;SDS011;7723;52.170;9.978;2023-07-30T08:11:13;4.35;;;1.70;;
15240;SDS011;7723;52.170;9.978;2023-07-30T08:13:41;2.95;;;1.60;;
15240;SDS011;7723;52.170;9.978;2023-07-30T08:16:09;2.50;;;1.98;;
15240;SDS011;7723;52.170;9.978;2023-07-30T08:18:36;2.58;;;1.50;;
15240;SDS011;7723;52.170;9.978;2023-07-30T08:21:03;3.10;;;1.70;;
15240;SDS011;7723;52.170;9.978;2023-07-30T08:23:30;3.40;;;1.70;;
15240;SDS011;7723;52.170;9.978;2023-07-30T08:25:57;4.70;;;1.88;;
15240;SDS011;7723;52.170;9.978;2023-07-30T08:28:24;6.40;;;2.00;;
15240;SDS011;7723;52.170;9.978;2023-07-30T08:30:53;2.95;;;1.67;;
15240;SDS011;7723;52.170;9.978;2023-07-30T08:33:26;2.65;;;1.77;;
15240;SDS011;7723;52.170;9.978;2023-07-30T08:35:54;2.72;;;1.60;;
15240;SDS011;7723;52.170;9.978;2023-07-30T08:38:22;2.10;;;1.73;;
15240;SDS011;7723;52.170;9.978;2023-07-30T08:40:49;3.30;;;1.50;;
15240;SDS011;7723;52.170;9.978;2023-07-30T08:43:17;2.88;;;1.60;;
15240;SDS011;7723;52.170;9.978;2023-07-30T08:45:45;3.78;;;1.67;;
15240;SDS011;7723;52.170;9.978;2023-07-30T08:48:13;2.47;;;1.70;;
15240;SDS011;7723;52.170;9.978;2023-07-30T08:50:40;2.83;;;1.55;;
15240;SDS011;7723;52.170;9.978;2023-07-30T08:53:08;2.92;;;1.42;;
15240;SDS011;7723;52.170;9.978;2023-07-30T08:55:36;2.22;;;1.42;;
15240;SDS011;7723;52.170;9.978;2023-07-30T08:58:05;1.80;;;1.38;;
15240;SDS011;7723;52.170;9.978;2023-07-30T09:00:34;3.05;;;1.40;;
15240;SDS011;7723;52.170;9.978;2023-07-30T09:03:03;4.63;;;1.92;;
15240;SDS011;7723;52.170;9.978;2023-07-30T09:05:32;2.53;;;1.35;;
15240;SDS011;7723;52.170;9.978;2023-07-30T09:08:00;4.65;;;1.50;;
15240;SDS011;7723;52.170;9.978;2023-07-30T09:10:27;4.35;;;1.88;;
15240;SDS011;7723;52.170;9.978;2023-07-30T09:12:54;4.70;;;1.60;;
15240;SDS011;7723;52.170;9.978;2023-07-30T09:15:30;3.17;;;1.50;;
15240;SDS011;7723;52.170;9.978;2023-07-30T09:17:58;3.13;;;1.63;;
15240;SDS011;7723;52.170;9.978;2023-07-30T09:20:26;3.25;;;1.67;;
15240;SDS011;7723;52.170;9.978;2023-07-30T09:22:57;4.53;;;1.70;;
15240;SDS011;7723;52.170;9.978;2023-07-30T09:25:25;2.10;;;1.70;;
15240;SDS011;7723;52.170;9.978;2023-07-30T09:27:52;2.83;;;1.65;;
15240;SDS011;7723;52.170;9.978;2023-07-30T09:30:23;4.13;;;1.50;;
15240;SDS011;7723;52.170;9.978;2023-07-30T09:32:51;4.93;;;1.60;;
15240;SDS011;7723;52.170;9.978;2023-07-30T09:35:20;2.47;;;1.40;;
15240;SDS011;7723;52.170;9.978;2023-07-30T09:37:50;2.20;;;1.63;;
15240;SDS011;7723;52.170;9.978;2023-07-30T09:40:32;2.72;;;1.50;;
15240;SDS011;7723;52.170;9.978;2023-07-30T09:43:00;1.95;;;1.40;;
15240;SDS011;7723;52.170;9.978;2023-07-30T09:45:28;2.85;;;1.58;;
15240;SDS011;7723;52.170;9.978;2023-07-30T09:48:00;7.25;;;1.40;;
15240;SDS011;7723;52.170;9.978;2023-07-30T09:50:30;2.95;;;1.60;;
15240;SDS011;7723;52.170;9.978;2023-07-30T09:52:58;3.78;;;1.48;;
15240;SDS011;7723;52.170;9.978;2023-07-30T09:55:26;4.15;;;1.63;;
15240;SDS011;7723;52.170;9.978;2023-07-30T09:57:55;2.92;;;1.63;;
15240;SDS011;7723;52.170;9.978;2023-07-30T10:00:22;2.97;;;1.80;;
15240;SDS011;7723;52.170;9.978;2023-07-30T10:02:50;2.65;;;1.30;;
15240;SDS011;7723;52.170;9.978;2023-07-30T10:05:19;2.20;;;1.65;;
15240;SDS011;7723;52.170;9.978;2023-07-30T10:07:51;2.88;;;1.55;;
15240;SDS011;7723;52.170;9.978;2023-07-30T10:10:22;3.85;;;1.63;;
15240;SDS011;7723;52.170;9.978;2023-07-30T10:12:51;4.75;;;1.52;;
15240;SDS011;7723;52.170;9.978;2023-07-30T10:15:25;2.30;;;1.42;;
15240;SDS011;7723;52.170;9.978;2023-07-30T10:17:52;1.95;;;1.75;;
15240;SDS011;7723;52.170;9.978;2023-07-30T10:20:23;5.53;;;1.80;;
15240;SDS011;7723;52.170;9.978;2023-07-30T10:22:52;2.88;;;1.98;;
15240;SDS011;7723;52.170;9.978;2023-07-30T10:25:20;5.13;;;1.95;;
15240;SDS011;7723;52.170;9.978;2023-07-30T10:27:49;5.03;;;1.70;;
15240;SDS011;7723;52.170;9.978;2023-07-30T10:30:19;5.03;;;2.67;;
15240;SDS011;7723;52.170;9.978;2023-07-30T10:33:00;3.50;;;1.70;;
15240;SDS011;7723;52.170;9.978;2023-07-30T10:35:34;2.50;;;1.50;;
15240;SDS011;7723;52.170;9.978;2023-07-30T10:38:12;3.20;;;2.03;;
15240;SDS011;7723;52.170;9.978;2023-07-30T10:40:40;3.22;;;1.70;;
15240;SDS011;7723;52.170;9.978;2023-07-30T10:43:14;4.47;;;2.28;;
15240;SDS011;7723;52.170;9.978;2023-07-30T10:45:49;4.35;;;2.20;;
15240;SDS011;7723;52.170;9.978;2023-07-30T10:48:16;5.03;;;2.25;;
15240;SDS011;7723;52.170;9.978;2023-07-30T10:50:44;4.20;;;2.13;;
15240;SDS011;7723;52.170;9.978;2023-07-30T10:53:14;5.57;;;2.17;;
15240;SDS011;7723;52.170;9.978;2023-07-30T10:55:43;4.05;;;1.80;;
15240;SDS011;7723;52.170;9.978;2023-07-30T10:58:11;4.72;;;2.10;;
15240;SDS011;7723;52.170;9.978;2023-07-30T11:00:40;3.58;;;2.20;;
15240;SDS011;7723;52.170;9.978;2023-07-30T11:03:09;5.90;;;2.20;;
15240;SDS011;7723;52.170;9.978;2023-07-30T11:05:37;3.35;;;2.10;;
15240;SDS011;7723;52.170;9.978;2023-07-30T11:08:05;6.13;;;2.22;;
15240;SDS011;7723;52.170;9.978;2023-07-30T11:10:32;3.88;;;2.42;;
15240;SDS011;7723;52.170;9.978;2023-07-30T11:13:08;6.00;;;2.10;;
15240;SDS011;7723;52.170;9.978;2023-07-30T11:15:40;5.00;;;2.03;;
15240;SDS011;7723;52.170;9.978;2023-07-30T11:18:09;4.78;;;2.22;;
15240;SDS011;7723;52.170;9.978;2023-07-30T11:20:37;2.72;;;1.90;;
15240;SDS011;7723;52.170;9.978;2023-07-30T11:23:17;7.10;;;2.25;;
15240;SDS011;7723;52.170;9.978;2023-07-30T11:25:45;3.60;;;1.60;;
15240;SDS011;7723;52.170;9.978;2023-07-30T11:28:14;3.33;;;2.20;;
15240;SDS011;7723;52.170;9.978;2023-07-30T11:30:53;5.60;;;2.30;;
15240;SDS011;7723;52.170;9.978;2023-07-30T11:33:22;4.32;;;1.80;;
15240;SDS011;7723;52.170;9.978;2023-07-30T11:35:49;4.75;;;1.92;;
15240;SDS011;7723;52.170;9.978;2023-07-30T11:38:16;3.83;;;2.03;;
15240;SDS011;7723;52.170;9.978;2023-07-30T11:40:45;4.85;;;1.75;;
15240;SDS011;7723;52.170;9.978;2023-07-30T11:43:13;6.20;;;1.90;;
15240;SDS011;7723;52.170;9.978;2023-07-30T11:45:40;2.80;;;1.77;;
15240;SDS011;7723;52.170;9.978;2023-07-30T11:48:08;4.22;;;1.70;;
15240;SDS011;7723;52.170;9.978;2023-07-30T11:50:45;3.05;;;1.73;;
15240;SDS011;7723;52.170;9.978;2023-07-30T11:53:13;2.53;;;1.80;;
15240;SDS011;7723;52.170;9.978;2023-07-30T11:55:41;4.78;;;1.85;;
15240;SDS011;7723;52.170;9.978;2023-07-30T11:58:09;4.32;;;2.22;;
15240;SDS011;7723;52.170;9.978;2023-07-30T12:00:37;3.53;;;2.00;;
15240;SDS011;7723;52.170;9.978;2023-07-30T12:03:05;3.50;;;2.17;;
15240;SDS011;7723;52.170;9.978;2023-07-30T12:05:35;5.47;;;2.25;;
15240;SDS011;7723;52.170;9.978;2023-07-30T12:08:06;2.08;;;1.60;;
15240;SDS011;7723;52.170;9.978;2023-07-30T12:10:42;5.43;;;2.25;;
15240;SDS011;7723;52.170;9.978;2023-07-30T12:13:15;2.80;;;2.17;;
15240;SDS011;7723;52.170;9.978;2023-07-30T12:15:43;3.20;;;2.10;;
15240;SDS011;7723;52.170;9.978;2023-07-30T12:18:16;4.28;;;1.98;;
15240;SDS011;7723;52.170;9.978;2023-07-30T12:20:44;4.53;;;2.25;;
15240;SDS011;7723;52.170;9.978;2023-07-30T12:23:12;3.72;;;2.13;;
15240;SDS011;7723;52.170;9.978;2023-07-30T12:25:39;3.33;;;2.05;;
15240;SDS011;7723;52.170;9.978;2023-07-30T12:28:06;3.20;;;1.90;;
15240;SDS011;7723;52.170;9.978;2023-07-30T12:30:33;2.45;;;1.90;;
15240;SDS011;7723;52.170;9.978;2023-07-30T12:33:01;3.17;;;1.95;;
15240;SDS011;7723;52.170;9.978;2023-07-30T12:35:29;3.85;;;2.38;;
15240;SDS011;7723;52.170;9.978;2023-07-30T12:37:56;4.05;;;2.30;;
15240;SDS011;7723;52.170;9.978;2023-07-30T12:40:25;6.65;;;3.17;;
15240;SDS011;7723;52.170;9.978;2023-07-30T12:42:54;4.35;;;2.75;;
15240;SDS011;7723;52.170;9.978;2023-07-30T12:45:23;5.25;;;2.85;;
15240;SDS011;7723;52.170;9.978;2023-07-30T12:47:50;7.90;;;3.33;;
15240;SDS011;7723;52.170;9.978;2023-07-30T12:50:17;5.00;;;3.08;;
15240;SDS011;7723;52.170;9.978;2023-07-30T12:52:44;5.57;;;3.00;;
15240;SDS011;7723;52.170;9.978;2023-07-30T12:55:11;4.75;;;2.85;;
15240;SDS011;7723;52.170;9.978;2023-07-30T12:57:39;6.35;;;3.25;;
15240;SDS011;7723;52.170;9.978;2023-07-30T13:00:07;5.10;;;3.13;;
15240;SDS011;7723;52.170;9.978;2023-07-30T13:02:34;4.15;;;2.80;;
15240;SDS011;7723;52.170;9.978;2023-07-30T13:05:01;4.35;;;3.05;;
15240;SDS011;7723;52.170;9.978;2023-07-30T13:07:29;6.38;;;3.15;;
15240;SDS011;7723;52.170;9.978;2023-07-30T13:10:03;4.45;;;2.90;;
15240;SDS011;7723;52.170;9.978;2023-07-30T13:12:31;5.47;;;3.13;;
15240;SDS011;7723;52.170;9.978;2023-07-30T13:14:59;4.60;;;2.90;;
15240;SDS011;7723;52.170;9.978;2023-07-30T13:17:27;6.15;;;2.90;;
15240;SDS011;7723;52.170;9.978;2023-07-30T13:19:54;3.63;;;3.17;;
15240;SDS011;7723;52.170;9.978;2023-07-30T13:22:21;3.45;;;3.00;;
15240;SDS011;7723;52.170;9.978;2023-07-30T13:24:49;6.55;;;3.08;;
15240;SDS011;7723;52.170;9.978;2023-07-30T13:27:16;5.43;;;3.13;;
15240;SDS011;7723;52.170;9.978;2023-07-30T13:29:43;7.28;;;3.53;;
15240;SDS011;7723;52.170;9.978;2023-07-30T13:32:13;5.80;;;3.15;;
15240;SDS011;7723;52.170;9.978;2023-07-30T13:34:40;4.15;;;2.50;;
15240;SDS011;7723;52.170;9.978;2023-07-30T13:37:07;4.20;;;2.90;;
15240;SDS011;7723;52.170;9.978;2023-07-30T13:39:34;3.78;;;2.67;;
15240;SDS011;7723;52.170;9.978;2023-07-30T13:42:01;4.25;;;2.80;;
15240;SDS011;7723;52.170;9.978;2023-07-30T13:44:28;4.45;;;3.22;;
15240;SDS011;7723;52.170;9.978;2023-07-30T13:46:55;5.97;;;2.85;;
15240;SDS011;7723;52.170;9.978;2023-07-30T13:49:24;6.95;;;2.88;;
15240;SDS011;7723;52.170;9.978;2023-07-30T13:51:51;4.95;;;2.58;;
15240;SDS011;7723;52.170;9.978;2023-07-30T13:54:18;5.68;;;2.80;;
15240;SDS011;7723;52.170;9.978;2023-07-30T13:56:45;3.50;;;2.70;;
15240;SDS011;7723;52.170;9.978;2023-07-30T13:59:12;3.03;;;2.35;;
15240;SDS011;7723;52.170;9.978;2023-07-30T14:01:39;5.82;;;2.80;;
15240;SDS011;7723;52.170;9.978;2023-07-30T14:04:06;5.60;;;2.50;;
15240;SDS011;7723;52.170;9.978;2023-07-30T14:06:35;7.03;;;3.33;;
15240;SDS011;7723;52.170;9.978;2023-07-30T14:09:02;3.25;;;2.65;;
15240;SDS011;7723;52.170;9.978;2023-07-30T14:11:29;3.85;;;2.60;;
15240;SDS011;7723;52.170;9.978;2023-07-30T14:13:57;5.32;;;2.85;;
15240;SDS011;7723;52.170;9.978;2023-07-30T14:16:24;3.70;;;2.63;;
15240;SDS011;7723;52.170;9.978;2023-07-30T14:18:52;3.50;;;2.53;;
15240;SDS011;7723;52.170;9.978;2023-07-30T14:21:19;5.35;;;2.80;;
15240;SDS011;7723;52.170;9.978;2023-07-30T14:23:47;3.45;;;2.47;;
15240;SDS011;7723;52.170;9.978;2023-07-30T14:26:14;3.60;;;2.63;;
15240;SDS011;7723;52.170;9.978;2023-07-30T14:28:41;2.90;;;2.30;;
15240;SDS011;7723;52.170;9.978;2023-07-30T14:31:08;5.05;;;2.47;;
15240;SDS011;7723;52.170;9.978;2023-07-30T14:33:37;4.53;;;2.53;;
15240;SDS011;7723;52.170;9.978;2023-07-30T14:36:04;3.33;;;2.63;;
15240;SDS011;7723;52.170;9.978;2023-07-30T14:38:31;2.95;;;2.10;;
15240;SDS011;7723;52.170;9.978;2023-07-30T14:41:01;2.25;;;1.73;;
15240;SDS011;7723;52.170;9.978;2023-07-30T14:43:30;6.70;;;2.15;;
15240;SDS011;7723;52.170;9.978;2023-07-30T14:45:58;3.33;;;2.22;;
15240;SDS011;7723;52.170;9.978;2023-07-30T14:48:25;4.60;;;2.13;;
15240;SDS011;7723;52.170;9.978;2023-07-30T14:50:52;5.60;;;1.77;;
15240;SDS011;7723;52.170;9.978;2023-07-30T14:53:19;2.03;;;1.80;;
15240;SDS011;7723;52.170;9.978;2023-07-30T14:55:46;3.05;;;1.90;;
15240;SDS011;7723;52.170;9.978;2023-07-30T14:58:15;2.42;;;1.80;;
15240;SDS011;7723;52.170;9.978;2023-07-30T15:00:42;2.58;;;1.80;;
15240;SDS011;7723;52.170;9.978;2023-07-30T15:03:09;3.40;;;1.58;;
15240;SDS011;7723;52.170;9.978;2023-07-30T15:05:37;4.57;;;2.00;;